Time;durP1;ratioP1;P1;durP2;ratioP2;P2;SDS_P1;SDS_P2;PMS_P1;PMS_P2;Temp;Humidity;BMP_temperature;BMP_pressure;BME280_temperature;BME280_humidity;BME280_pressure;Samples;Min_cycle;Max_cycle;Signal;HPM_P1;HPM_P2
2022/09/17 00:01:25;;;;;;;12.80;3.42;;;10.50;99.90;;;-144.05;84.76;125687.94;4791685;29;20031;-88
2022/09/17 00:03:56;;;;;;;13.48;2.97;;;10.40;99.90;;;-144.05;84.84;125687.94;4792036;29;20035;-86
2022/09/17 00:06:24;;;;;;;12.93;3.13;;;10.50;99.90;;;-144.05;84.79;125687.94;4791816;29;20063;-89
2022/09/17 00:08:52;;;;;;;11.13;2.35;;;10.50;99.90;;;-144.05;84.56;125687.94;4791406;29;20059;-89
2022/09/17 00:11:31;;;;;;;9.50;2.80;;;10.50;99.90;;;-144.05;84.92;125687.94;4791577;29;20040;-90
2022/09/17 00:14:01;;;;;;;14.18;4.05;;;10.50;99.90;;;-144.05;85.52;125687.94;4791222;29;20042;-87
2022/09/17 00:16:40;;;;;;;18.10;3.00;;;10.40;99.90;;;-144.05;85.55;125687.94;4790989;29;20035;-88
2022/09/17 00:19:14;;;;;;;11.18;3.40;;;10.40;99.90;;;-144.05;86.21;125687.94;4790856;29;20035;-90
2022/09/17 00:21:41;;;;;;;16.73;3.55;;;10.30;99.90;;;-144.05;85.78;125687.94;4792743;29;20099;-89
2022/09/17 00:24:11;;;;;;;16.08;3.22;;;10.40;99.90;;;-144.05;85.60;125687.94;4792493;29;20052;-85
2022/09/17 00:26:37;;;;;;;11.93;3.42;;;10.40;99.90;;;-144.05;85.75;125687.94;4791690;30;20046;-87
2022/09/17 00:29:04;;;;;;;18.05;4.65;;;10.30;99.90;;;-144.05;85.82;125687.94;4791640;29;20039;-86
2022/09/17 00:31:31;;;;;;;13.05;4.20;;;10.30;99.90;;;-144.05;86.22;125687.94;4792066;29;20070;-88
2022/09/17 00:34:01;;;;;;;15.15;4.68;;;10.30;99.90;;;-144.05;86.41;125687.94;4791125;29;20492;-85
2022/09/17 00:36:28;;;;;;;15.90;5.10;;;10.30;99.90;;;-144.05;86.29;125687.94;4790399;29;20043;-85
2022/09/17 00:38:58;;;;;;;17.95;6.28;;;10.40;99.90;;;-144.05;86.37;125687.94;4795259;29;20039;-85
2022/09/17 00:41:30;;;;;;;22.05;7.72;;;10.30;99.90;;;-144.05;86.40;125687.94;4797891;29;20046;-87
2022/09/17 00:44:01;;;;;;;21.35;7.72;;;10.30;99.90;;;-144.05;86.17;125687.94;4791064;29;20063;-88
2022/09/17 00:46:42;;;;;;;21.88;7.38;;;10.30;99.90;;;-144.05;86.35;125687.94;4792720;29;20035;-92
2022/09/17 00:49:25;;;;;;;19.52;8.27;;;10.30;99.90;;;-144.05;86.74;125687.94;4792326;29;20039;-89
2022/09/17 00:52:08;;;;;;;17.75;8.88;;;10.30;99.90;;;-144.05;86.15;125687.94;4792130;29;20501;-90
2022/09/17 00:54:39;;;;;;;19.52;8.98;;;10.20;99.90;;;-144.05;85.79;125687.94;4793573;30;20039;-89
2022/09/17 00:57:06;;;;;;;23.55;9.45;;;10.10;99.90;;;-144.05;86.67;125687.94;4794175;29;20031;-90
2022/09/17 00:59:32;;;;;;;21.85;8.50;;;10.10;99.90;;;-144.05;86.95;125687.94;4796048;29;20061;-92
2022/09/17 01:01:58;;;;;;;20.00;8.15;;;10.10;99.90;;;-144.05;86.70;125687.94;4794035;29;20065;-88
2022/09/17 01:04:26;;;;;;;27.20;8.00;;;10.00;99.90;;;-144.05;86.82;125687.94;4791059;29;20553;-91
2022/09/17 01:07:45;;;;;;;17.08;6.70;;;10.10;99.90;;;-144.05;86.66;125687.94;4791406;29;20495;-90
2022/09/17 01:10:29;;;;;;;19.33;6.90;;;10.00;99.90;;;-144.05;87.02;125687.94;4791277;29;20043;-88
2022/09/17 01:13:44;;;;;;;17.40;6.13;;;10.00;99.90;;;-144.05;86.52;125687.94;4792516;30;20035;-88
2022/09/17 01:16:43;;;;;;;18.42;6.10;;;9.90;99.90;;;-144.05;86.02;125687.94;4793618;29;20123;-92
2022/09/17 01:19:58;;;;;;;11.18;4.22;;;9.90;99.90;;;-144.05;86.35;125687.94;4792498;29;20035;-90
2022/09/17 01:23:23;;;;;;;21.52;6.18;;;9.80;99.90;;;-144.05;87.15;125687.94;4793708;29;20039;-90
2022/09/17 01:27:01;;;;;;;13.88;5.07;;;9.70;99.90;;;-144.05;87.70;125687.94;4792341;29;20043;-90
2022/09/17 01:30:14;;;;;;;16.40;4.43;;;9.70;99.90;;;-144.05;86.97;125687.94;4797374;30;20031;-86
2022/09/17 01:33:24;;;;;;;11.70;4.50;;;9.60;99.90;;;-144.05;87.26;125687.94;4801776;30;20138;-87
2022/09/17 01:36:50;;;;;;;13.70;4.63;;;9.50;99.90;;;-144.05;86.94;125687.94;4785899;30;20050;-89
2022/09/17 01:39:51;;;;;;;15.45;5.38;;;9.50;99.90;;;-144.05;87.60;125687.94;4797679;30;20032;-88
2022/09/17 01:42:41;;;;;;;22.85;5.03;;;9.50;99.90;;;-144.05;87.41;125687.94;4789341;29;20432;-86
2022/09/17 01:45:38;;;;;;;17.67;5.35;;;9.50;99.90;;;-144.05;87.72;125687.94;4789350;29;20031;-89
2022/09/17 01:48:28;;;;;;;13.40;4.63;;;9.50;99.90;;;-144.05;88.03;125687.94;4789564;30;20059;-88
2022/09/17 01:51:06;;;;;;;15.18;4.15;;;9.50;99.90;;;-144.05;87.35;125687.94;4789387;30;20051;-89
2022/09/17 01:54:03;;;;;;;21.45;4.90;;;9.40;99.90;;;-144.05;87.88;125687.94;4789261;29;20138;-87
2022/09/17 01:57:00;;;;;;;15.25;4.93;;;9.40;99.90;;;-144.05;87.63;125687.94;4789144;29;20049;-89
2022/09/17 01:59:42;;;;;;;17.83;4.88;;;9.40;99.90;;;-144.05;87.83;125687.94;4788777;29;20110;-90
2022/09/17 02:02:29;;;;;;;19.65;4.78;;;9.40;99.90;;;-144.05;88.36;125687.94;4788349;29;20055;-89
2022/09/17 02:05:17;;;;;;;14.75;5.10;;;9.40;99.90;;;-144.05;88.23;125687.94;4789067;29;20511;-87
2022/09/17 02:08:03;;;;;;;24.15;5.40;;;9.40;99.90;;;-144.05;88.13;125687.94;4788616;29;20039;-86
2022/09/17 02:10:42;;;;;;;26.45;6.80;;;9.40;99.90;;;-144.05;88.55;125687.94;4789316;29;20149;-85
2022/09/17 02:13:25;;;;;;;20.23;7.05;;;9.40;99.90;;;-144.05;88.58;125687.94;4788183;29;20054;-87
2022/09/17 02:16:04;;;;;;;19.80;5.88;;;9.40;99.90;;;-144.05;88.71;125687.94;4788499;29;20041;-90
2022/09/17 02:18:54;;;;;;;19.13;6.28;;;9.40;99.90;;;-144.05;88.51;125687.94;4788115;29;20487;-92
2022/09/17 02:21:52;;;;;;;22.17;6.93;;;9.50;99.90;;;-144.05;88.54;125687.94;4788639;29;20522;-88
2022/09/17 02:24:51;;;;;;;19.98;5.95;;;9.40;99.90;;;-144.05;88.49;125687.94;4788521;29;20065;-89
2022/09/17 02:27:41;;;;;;;23.58;6.25;;;9.40;99.90;;;-144.05;89.06;125687.94;4788551;29;20067;-86
2022/09/17 02:30:09;;;;;;;27.98;7.05;;;9.40;99.90;;;-144.05;89.30;125687.94;4790009;29;20042;-90
2022/09/17 02:32:34;;;;;;;18.95;7.13;;;9.40;99.90;;;-144.05;89.23;125687.94;4788737;29;20095;-85
2022/09/17 02:35:00;;;;;;;24.75;7.38;;;9.40;99.90;;;-144.05;89.08;125687.94;4788573;29;20039;-89
2022/09/17 02:37:26;;;;;;;22.08;6.47;;;9.50;99.90;;;-144.05;89.16;125687.94;4787991;29;20103;-88
2022/09/17 02:39:53;;;;;;;20.60;6.38;;;9.50;99.90;;;-144.05;88.89;125687.94;4789727;29;20566;-86
2022/09/17 02:42:58;;;;;;;20.25;5.90;;;9.50;99.90;;;-144.05;88.93;125687.94;4792412;29;20051;-86
2022/09/17 02:45:45;;;;;;;24.33;6.72;;;9.50;99.90;;;-144.05;89.13;125687.94;4799701;29;20047;-90
2022/09/17 02:48:37;;;;;;;24.13;6.63;;;9.60;99.90;;;-144.05;89.79;125687.94;4788787;29;20035;-91
2022/09/17 02:51:46;;;;;;;22.75;6.18;;;9.60;99.90;;;-144.05;89.18;125687.94;4788368;30;20488;-88
2022/09/17 02:54:35;;;;;;;25.48;6.63;;;9.60;99.90;;;-144.05;89.08;125687.94;4788238;29;20064;-89
2022/09/17 02:57:51;;;;;;;20.60;5.90;;;9.70;99.90;;;-144.05;89.26;125687.94;4789517;29;20039;-90
2022/09/17 03:00:21;;;;;;;20.38;5.72;;;9.70;99.90;;;-144.05;89.24;125687.94;4789305;29;20058;-88
2022/09/17 03:03:12;;;;;;;22.55;6.03;;;9.70;99.90;;;-144.05;89.51;125687.94;4789601;29;20043;-88
2022/09/17 03:05:41;;;;;;;20.02;5.35;;;9.80;99.90;;;-144.05;89.36;125687.94;4790616;29;20464;-90
2022/09/17 03:08:13;;;;;;;25.88;6.25;;;9.80;99.90;;;-144.05;89.08;125687.94;4791426;29;20043;-90
2022/09/17 03:10:40;;;;;;;25.20;5.90;;;9.80;99.90;;;-144.05;88.83;125687.94;4790045;29;20484;-90
2022/09/17 03:13:06;;;;;;;18.65;4.35;;;9.90;99.90;;;-144.05;88.65;125687.94;4791088;29;20047;-87
2022/09/17 03:15:32;;;;;;;30.30;4.63;;;9.80;99.90;;;-144.05;88.76;125687.94;4791023;29;20038;-88
2022/09/17 03:17:58;;;;;;;15.15;5.00;;;9.90;99.90;;;-144.05;88.63;125687.94;4791345;29;20043;-91
2022/09/17 03:20:23;;;;;;;18.75;4.75;;;9.90;99.90;;;-144.05;88.26;125687.94;4791930;29;20126;-88
2022/09/17 03:22:51;;;;;;;16.83;5.22;;;9.90;99.90;;;-144.05;87.98;125687.94;4792163;29;20626;-88
2022/09/17 03:25:17;;;;;;;13.30;4.60;;;9.90;99.90;;;-144.05;87.86;125687.94;4788126;29;20039;-90
2022/09/17 03:27:43;;;;;;;22.65;4.85;;;9.90;99.90;;;-144.05;87.56;125687.94;4789059;29;20396;-88
2022/09/17 03:30:09;;;;;;;23.15;4.80;;;10.00;99.90;;;-144.05;87.35;125687.94;4787908;29;20031;-87
2022/09/17 03:32:35;;;;;;;24.38;4.65;;;9.90;99.90;;;-144.05;87.31;125687.94;4787433;29;20031;-88
2022/09/17 03:35:01;;;;;;;17.10;4.45;;;9.90;99.90;;;-144.05;87.77;125687.94;4788442;29;20100;-90
2022/09/17 03:37:27;;;;;;;18.85;3.72;;;9.90;99.90;;;-144.05;88.09;125687.94;4788504;29;20063;-85
2022/09/17 03:39:53;;;;;;;17.83;4.30;;;9.90;99.90;;;-144.05;87.55;125687.94;4787215;29;20422;-90
2022/09/17 03:42:19;;;;;;;22.63;5.20;;;9.80;99.90;;;-144.05;87.50;125687.94;4787459;29;20031;-87
2022/09/17 03:44:45;;;;;;;19.02;3.65;;;9.80;99.90;;;-144.05;87.17;125687.94;4787960;29;20075;-91
2022/09/17 03:47:11;;;;;;;15.55;3.88;;;9.70;99.90;;;-144.05;87.21;125687.94;4787589;29;20035;-89
2022/09/17 03:49:37;;;;;;;17.55;3.58;;;9.70;99.90;;;-144.05;87.15;125687.94;4787725;29;20121;-88
2022/09/17 03:52:03;;;;;;;12.13;3.03;;;9.70;99.90;;;-144.05;87.19;125687.94;4787863;29;20125;-88
2022/09/17 03:54:29;;;;;;;20.52;5.18;;;9.70;99.90;;;-144.05;87.14;125687.94;4788070;29;20176;-88
2022/09/17 03:56:54;;;;;;;15.50;3.70;;;9.70;99.90;;;-144.05;87.22;125687.94;4789725;29;20401;-92
2022/09/17 03:59:21;;;;;;;26.10;4.82;;;9.60;99.90;;;-144.05;87.44;125687.94;4788276;29;20507;-90
2022/09/17 04:01:47;;;;;;;21.15;4.47;;;9.60;99.90;;;-144.05;87.35;125687.94;4788204;29;20126;-91
2022/09/17 04:04:13;;;;;;;13.30;3.47;;;9.60;99.90;;;-144.05;87.08;125687.94;4789233;29;20074;-89
2022/09/17 04:06:39;;;;;;;21.65;5.03;;;9.60;99.90;;;-144.05;86.95;125687.94;4789018;29;20543;-87
2022/09/17 04:09:05;;;;;;;18.63;3.50;;;9.60;99.90;;;-144.05;86.91;125687.94;4789399;29;20039;-91
2022/09/17 04:11:31;;;;;;;18.05;3.60;;;9.60;99.90;;;-144.05;86.92;125687.94;4789069;29;20036;-90
2022/09/17 04:13:57;;;;;;;11.57;2.78;;;9.50;99.90;;;-144.05;87.08;125687.94;4790014;29;20031;-91
2022/09/17 04:16:22;;;;;;;15.25;2.95;;;9.50;99.90;;;-144.05;87.58;125687.94;4790961;29;20035;-91
2022/09/17 04:18:48;;;;;;;16.30;3.35;;;9.50;99.90;;;-144.05;87.10;125687.94;4789924;29;20131;-89
2022/09/17 04:21:14;;;;;;;22.10;4.38;;;9.40;99.90;;;-144.05;86.75;125687.94;4789718;30;20408;-91
2022/09/17 04:23:40;;;;;;;15.90;2.92;;;9.30;99.90;;;-144.05;87.01;125687.94;4789134;29;20112;-92
2022/09/17 04:26:06;;;;;;;15.15;3.08;;;9.40;99.90;;;-144.05;86.91;125687.94;4793267;29;20600;-89
2022/09/17 04:28:32;;;;;;;20.60;3.97;;;9.40;99.90;;;-144.05;87.31;125687.94;4792232;29;20046;-86
2022/09/17 04:30:58;;;;;;;13.32;3.05;;;9.30;99.90;;;-144.05;87.08;125687.94;4791352;29;20043;-90
2022/09/17 04:33:24;;;;;;;23.88;3.28;;;9.30;99.90;;;-144.05;86.69;125687.94;4791423;29;20035;-89
2022/09/17 04:35:50;;;;;;;19.75;3.50;;;9.20;99.90;;;-144.05;87.22;125687.94;4790621;29;20065;-87
2022/09/17 04:38:17;;;;;;;10.48;2.67;;;9.20;99.90;;;-144.05;87.30;125687.94;4790630;29;20138;-88
2022/09/17 04:40:45;;;;;;;17.88;3.10;;;9.20;99.90;;;-144.05;87.04;125687.94;4793123;29;20046;-88
2022/09/17 04:43:11;;;;;;;20.30;3.20;;;9.20;99.90;;;-144.05;87.41;125687.94;4793052;29;20489;-89
2022/09/17 04:45:37;;;;;;;14.63;2.67;;;9.20;99.90;;;-144.05;87.12;125687.94;4791967;29;20036;-86
2022/09/17 04:48:04;;;;;;;17.73;2.78;;;9.20;99.90;;;-144.05;87.67;125687.94;4799317;29;20036;-89
2022/09/17 04:50:30;;;;;;;15.68;3.35;;;9.30;99.90;;;-144.05;87.18;125687.94;4794685;29;20054;-87
2022/09/17 04:52:56;;;;;;;15.60;2.38;;;9.30;99.90;;;-144.05;86.96;125687.94;4789130;30;20063;-88
2022/09/17 04:55:22;;;;;;;16.98;2.95;;;9.30;99.90;;;-144.05;87.05;125687.94;4789590;30;20092;-90
2022/09/17 04:57:52;;;;;;;13.38;3.35;;;9.30;99.90;;;-144.05;86.75;125687.94;4789580;29;20043;-88
2022/09/17 05:00:21;;;;;;;16.48;2.63;;;9.40;99.90;;;-144.05;87.16;125687.94;4789232;29;20042;-87
2022/09/17 05:02:52;;;;;;;15.43;2.65;;;9.40;99.90;;;-144.05;86.77;125687.94;4788787;29;20043;-86
2022/09/17 05:05:20;;;;;;;14.45;2.80;;;9.50;99.90;;;-144.05;86.61;125687.94;4789381;29;20035;-88
2022/09/17 05:07:50;;;;;;;13.48;2.50;;;9.50;99.90;;;-144.05;86.74;125687.94;4788450;30;20042;-86
2022/09/17 05:10:19;;;;;;;18.25;2.70;;;9.50;99.90;;;-144.05;86.47;125687.94;4789695;29;20031;-87
2022/09/17 05:12:52;;;;;;;15.45;2.28;;;9.50;99.90;;;-144.05;86.46;125687.94;4791582;29;20046;-87
2022/09/17 05:15:18;;;;;;;16.90;2.78;;;9.60;99.90;;;-144.05;86.34;125687.94;4794440;29;20038;-90
2022/09/17 05:17:46;;;;;;;13.50;2.00;;;9.50;99.90;;;-144.05;86.45;125687.94;4791836;29;20369;-90
2022/09/17 05:20:15;;;;;;;15.82;2.63;;;9.60;99.90;;;-144.05;86.16;125687.94;4792017;29;20038;-90
2022/09/17 05:22:51;;;;;;;12.60;2.60;;;9.60;99.90;;;-144.05;86.49;125687.94;4789825;29;20035;-92
2022/09/17 05:25:24;;;;;;;17.05;3.05;;;9.60;99.90;;;-144.05;85.95;125687.94;4791749;29;20035;-88
2022/09/17 05:27:55;;;;;;;17.52;2.88;;;9.60;99.90;;;-144.05;85.79;125687.94;4790751;29;20039;-88
2022/09/17 05:30:21;;;;;;;20.90;2.58;;;9.60;99.90;;;-144.05;85.84;125687.94;4790636;29;20389;-90
2022/09/17 05:32:48;;;;;;;13.00;1.92;;;9.60;99.90;;;-144.05;85.33;125687.94;4790327;29;20031;-89
2022/09/17 05:35:14;;;;;;;15.85;2.25;;;9.60;99.90;;;-144.05;85.46;125687.94;4791167;29;20065;-88
2022/09/17 05:37:40;;;;;;;13.60;1.67;;;9.60;99.90;;;-144.05;85.31;125687.94;4792671;29;20064;-86
2022/09/17 05:40:08;;;;;;;18.30;2.28;;;9.60;99.90;;;-144.05;84.86;125687.94;4791560;29;20070;-89
2022/09/17 05:42:34;;;;;;;14.13;2.15;;;9.60;99.90;;;-144.05;85.27;125687.94;4791556;29;20065;-88
2022/09/17 05:45:00;;;;;;;18.75;2.50;;;9.70;99.90;;;-144.05;84.72;125687.94;4793313;29;20042;-89
2022/09/17 05:47:26;;;;;;;12.48;1.88;;;9.70;99.90;;;-144.05;84.43;125687.94;4791411;29;20054;-88
2022/09/17 05:49:52;;;;;;;18.95;3.25;;;9.70;99.90;;;-144.05;84.38;125687.94;4789685;29;20084;-90
2022/09/17 05:52:18;;;;;;;9.82;1.85;;;9.80;99.90;;;-144.05;84.26;125687.94;4791430;29;20237;-92
2022/09/17 05:54:44;;;;;;;14.80;2.30;;;9.90;99.90;;;-144.05;84.30;125687.94;4790370;30;20027;-91
2022/09/17 05:57:11;;;;;;;13.63;1.95;;;9.90;99.90;;;-144.05;83.73;125687.94;4789701;30;20051;-87
2022/09/17 05:59:36;;;;;;;15.10;2.08;;;10.00;99.90;;;-144.05;83.22;125687.94;4791193;29;20104;-88
2022/09/17 06:02:05;;;;;;;11.18;1.85;;;10.20;99.90;;;-144.05;82.26;125687.94;4789390;29;20058;-88
2022/09/17 06:04:31;;;;;;;10.48;1.67;;;10.30;99.90;;;-144.05;82.30;125687.94;4790079;29;20035;-89
2022/09/17 06:06:57;;;;;;;11.93;1.70;;;10.40;99.90;;;-144.05;81.88;125687.94;4790056;29;20062;-90
2022/09/17 06:09:23;;;;;;;15.88;1.77;;;10.50;99.90;;;-144.05;81.40;125687.94;4789693;29;20039;-91
2022/09/17 06:11:49;;;;;;;10.05;1.55;;;10.60;99.90;;;-144.05;81.12;125687.94;4789651;29;20055;-89
2022/09/17 06:14:15;;;;;;;15.35;2.42;;;10.80;99.90;;;-144.05;80.74;125687.94;4791644;29;20556;-91
2022/09/17 06:16:41;;;;;;;9.07;1.75;;;11.00;99.90;;;-144.05;79.16;125687.94;4791072;29;20043;-89
2022/09/17 06:19:07;;;;;;;12.05;1.88;;;11.10;99.90;;;-144.05;78.65;125687.94;4790430;30;20031;-91
2022/09/17 06:21:32;;;;;;;10.18;2.30;;;11.00;99.90;;;-144.05;78.19;125687.94;4790745;30;20537;-91
2022/09/17 06:24:00;;;;;;;8.65;1.70;;;11.10;99.90;;;-144.05;77.76;125687.94;4791790;29;20385;-92
2022/09/17 06:26:25;;;;;;;8.43;1.50;;;11.10;99.90;;;-144.05;78.21;125687.94;4792757;29;20046;-89
2022/09/17 06:28:51;;;;;;;6.15;1.58;;;11.10;99.90;;;-144.05;78.05;125687.94;4791034;29;20447;-89
2022/09/17 06:31:17;;;;;;;11.63;1.85;;;11.20;99.90;;;-144.05;77.52;125687.94;4790832;29;20043;-89
2022/09/17 06:33:43;;;;;;;12.73;1.75;;;11.20;99.90;;;-144.05;76.66;125687.94;4791199;29;20031;-88
2022/09/17 06:36:11;;;;;;;9.43;2.35;;;11.20;99.90;;;-144.05;76.21;125687.94;4792282;29;20121;-91
2022/09/17 06:38:37;;;;;;;6.68;1.70;;;11.20;99.90;;;-144.05;76.69;125687.94;4790303;29;20096;-91
2022/09/17 06:41:04;;;;;;;10.68;2.00;;;11.20;99.90;;;-144.05;76.03;125687.94;4787517;29;20034;-88
2022/09/17 06:43:30;;;;;;;6.88;1.50;;;11.10;99.90;;;-144.05;76.38;125687.94;4792478;29;20035;-88
2022/09/17 06:46:07;;;;;;;8.90;1.27;;;11.00;99.90;;;-144.05;76.33;125687.94;4798306;29;20071;-85
2022/09/17 06:48:36;;;;;;;8.60;1.33;;;11.00;99.90;;;-144.05;76.35;125687.94;4822250;29;20099;-88
2022/09/17 06:51:07;;;;;;;12.00;1.67;;;11.00;99.90;;;-144.05;76.56;125687.94;4807708;29;20030;-85
2022/09/17 06:53:36;;;;;;;10.55;1.80;;;10.90;99.90;;;-144.05;75.77;125687.94;4806566;29;20039;-85
2022/09/17 06:56:05;;;;;;;6.72;1.98;;;10.90;99.90;;;-144.05;76.10;125687.94;4806614;29;20039;-84
2022/09/17 06:58:32;;;;;;;10.57;1.48;;;10.80;99.90;;;-144.05;75.54;125687.94;4800967;29;20046;-90
2022/09/17 07:01:00;;;;;;;9.75;1.55;;;10.80;99.90;;;-144.05;76.06;125687.94;4787799;29;20057;-90
2022/09/17 07:03:29;;;;;;;9.98;1.60;;;10.70;99.90;;;-144.05;76.14;125687.94;4787366;30;20031;-88
2022/09/17 07:05:56;;;;;;;9.40;1.65;;;10.90;99.90;;;-144.05;76.41;125687.94;4802984;29;20039;-90
2022/09/17 07:08:22;;;;;;;14.20;1.90;;;10.90;99.90;;;-144.05;76.19;125687.94;4788018;29;20035;-90
2022/09/17 07:10:49;;;;;;;8.13;1.77;;;11.00;99.90;;;-144.05;75.91;125687.94;4790843;29;20035;-88
2022/09/17 07:13:14;;;;;;;10.88;1.95;;;11.00;99.90;;;-144.05;75.52;125687.94;4789909;29;20042;-90
2022/09/17 07:15:40;;;;;;;9.07;1.92;;;11.00;99.90;;;-144.05;76.00;125687.94;4787272;29;20027;-86
2022/09/17 07:18:10;;;;;;;8.20;1.60;;;11.10;99.90;;;-144.05;75.71;125687.94;4789818;29;20413;-90
2022/09/17 07:20:38;;;;;;;8.00;1.90;;;11.20;99.90;;;-144.05;75.35;125687.94;4788094;29;20036;-91
2022/09/17 07:23:03;;;;;;;10.88;1.30;;;11.20;99.90;;;-144.05;75.35;125687.94;4789355;30;20035;-86
2022/09/17 07:25:29;;;;;;;9.93;1.65;;;11.40;99.90;;;-144.05;73.69;125687.94;4789486;29;20041;-88
2022/09/17 07:27:55;;;;;;;9.35;1.50;;;11.60;99.90;;;-144.05;72.22;125687.94;4789813;29;20065;-87
2022/09/17 07:30:21;;;;;;;10.43;1.52;;;11.70;99.90;;;-144.05;70.55;125687.94;4791904;29;20509;-87
2022/09/17 07:32:47;;;;;;;9.40;1.67;;;11.80;99.90;;;-144.05;71.66;125687.94;4790736;29;20366;-88
2022/09/17 07:35:13;;;;;;;8.75;1.77;;;11.70;99.90;;;-144.05;70.36;125687.94;4791153;29;20035;-89
2022/09/17 07:37:39;;;;;;;6.75;1.40;;;11.90;99.90;;;-144.05;69.53;125687.94;4792197;29;20038;-88
2022/09/17 07:40:06;;;;;;;12.18;1.48;;;12.10;99.90;;;-144.05;67.28;125687.94;4791471;29;20035;-89
2022/09/17 07:42:33;;;;;;;7.13;1.40;;;12.50;99.90;;;-144.05;66.37;125687.94;4791802;29;20039;-90
2022/09/17 07:44:59;;;;;;;8.70;1.83;;;13.00;99.90;;;-144.05;64.97;125687.94;4789924;29;20066;-88
2022/09/17 07:47:25;;;;;;;6.20;1.50;;;13.00;99.90;;;-144.05;65.83;125687.94;4790240;29;20059;-89
2022/09/17 07:49:51;;;;;;;6.68;1.15;;;12.90;99.90;;;-144.05;64.95;125687.94;4790001;29;20039;-87
2022/09/17 07:52:17;;;;;;;7.03;1.33;;;12.90;99.90;;;-144.05;64.47;125687.94;4789116;29;20027;-86
2022/09/17 07:54:43;;;;;;;10.65;1.60;;;13.20;99.90;;;-144.05;64.42;125687.94;4790429;29;20035;-90
2022/09/17 07:57:09;;;;;;;8.30;1.45;;;13.50;99.90;;;-144.05;63.50;125687.94;4789459;29;20373;-87
2022/09/17 07:59:35;;;;;;;6.72;1.73;;;14.10;99.90;;;-144.05;61.00;125687.94;4790754;29;20400;-87
2022/09/17 08:02:01;;;;;;;8.00;2.10;;;14.50;99.90;;;-144.05;59.93;125687.94;4793825;29;20152;-87
2022/09/17 08:04:27;;;;;;;7.50;1.85;;;14.60;99.90;;;-144.05;58.28;125687.94;4796596;29;20031;-85
2022/09/17 08:06:52;;;;;;;7.05;1.77;;;14.70;99.90;;;-144.05;60.16;125687.94;4793467;29;20035;-86
2022/09/17 08:09:18;;;;;;;7.57;1.70;;;14.70;99.90;;;-144.05;59.17;125687.94;4792783;29;20412;-87
2022/09/17 08:11:44;;;;;;;5.35;1.63;;;14.80;99.90;;;-144.05;58.33;125687.94;4793475;29;20076;-87
2022/09/17 08:14:14;;;;;;;5.70;2.03;;;15.00;99.90;;;-144.05;57.68;125687.94;4793916;30;20470;-89
2022/09/17 08:16:41;;;;;;;9.27;1.80;;;15.10;99.90;;;-144.05;56.72;125687.94;4797435;29;20035;-88
2022/09/17 08:19:10;;;;;;;5.70;1.67;;;15.20;99.90;;;-144.05;55.04;125687.94;4796314;29;20476;-89
2022/09/17 08:21:36;;;;;;;8.50;1.70;;;15.20;99.90;;;-144.05;55.61;125687.94;4796721;29;20299;-88
2022/09/17 08:24:02;;;;;;;8.30;1.63;;;15.30;99.90;;;-144.05;54.80;125687.94;4793682;29;20042;-87
2022/09/17 08:26:28;;;;;;;8.00;1.77;;;15.50;99.90;;;-144.05;54.65;125687.94;4794782;29;20043;-87
2022/09/17 08:28:55;;;;;;;7.70;1.88;;;15.50;99.90;;;-144.05;56.02;125687.94;4794331;29;20228;-89
2022/09/17 08:31:25;;;;;;;8.07;1.70;;;15.50;99.90;;;-144.05;54.21;125687.94;4794496;29;20440;-89
2022/09/17 08:33:52;;;;;;;11.63;1.95;;;15.70;99.90;;;-144.05;53.49;125687.94;4796203;29;20041;-86
2022/09/17 08:36:20;;;;;;;9.45;1.88;;;16.10;99.90;;;-144.05;53.21;125687.94;4794294;29;20477;-86
2022/09/17 08:38:46;;;;;;;8.68;1.58;;;16.10;99.90;;;-144.05;52.91;125687.94;4793595;29;20035;-84
2022/09/17 08:42:16;;;;;;;7.10;2.10;;;16.40;99.90;;;-144.05;51.35;125687.94;4792941;29;20055;-88
2022/09/17 08:44:46;;;;;;;7.45;1.73;;;16.30;99.90;;;-144.05;51.57;125687.94;4794405;29;20043;-88
2022/09/17 08:47:18;;;;;;;6.32;1.00;;;16.40;99.90;;;-144.05;50.54;125687.94;4795811;29;20040;-86
2022/09/17 08:49:56;;;;;;;9.80;1.45;;;16.50;99.90;;;-144.05;50.77;125687.94;4797801;30;20035;-85
2022/09/17 08:53:05;;;;;;;6.22;1.15;;;16.40;99.90;;;-144.05;51.35;125687.94;4800893;29;20031;-88
2022/09/17 08:56:00;;;;;;;7.28;1.55;;;15.90;99.90;;;-144.05;50.54;125687.94;4801197;29;20103;-86
2022/09/17 08:59:25;;;;;;;3.55;1.10;;;16.20;99.90;;;-144.05;49.55;125687.94;4800382;29;20028;-88
2022/09/17 09:02:11;;;;;;;5.03;1.55;;;16.40;99.90;;;-144.05;49.71;125687.94;4800585;30;20050;-84
2022/09/17 09:05:14;;;;;;;5.55;1.23;;;16.50;99.90;;;-144.05;50.15;125687.94;4810242;29;20039;-87
2022/09/17 09:07:51;;;;;;;5.25;1.17;;;16.40;99.90;;;-144.05;51.44;125687.94;4809783;29;20120;-85
2022/09/17 09:10:28;;;;;;;6.38;1.20;;;15.80;99.90;;;-144.05;52.25;125687.94;4795223;30;20046;-89
2022/09/17 09:12:59;;;;;;;7.78;1.40;;;15.40;99.90;;;-144.05;52.68;125687.94;4791753;29;20035;-85
2022/09/17 09:16:01;;;;;;;7.63;1.13;;;15.00;99.90;;;-144.05;53.47;125687.94;4793167;29;20035;-89
2022/09/17 09:18:34;;;;;;;4.70;1.25;;;14.90;99.90;;;-144.05;53.02;125687.94;4793353;29;20535;-88
2022/09/17 09:21:38;;;;;;;6.38;1.48;;;15.30;99.90;;;-144.05;50.70;125687.94;4792590;29;20087;-89
2022/09/17 09:24:31;;;;;;;7.38;1.33;;;15.70;99.90;;;-144.05;49.52;125687.94;4792129;29;20523;-84
2022/09/17 09:27:02;;;;;;;3.85;1.20;;;16.00;99.90;;;-144.05;48.55;125687.94;4794429;29;20083;-85
2022/09/17 09:30:10;;;;;;;9.07;1.33;;;16.00;99.90;;;-144.05;49.48;125687.94;4793252;30;20079;-86
2022/09/17 09:32:59;;;;;;;6.80;0.90;;;16.20;99.90;;;-144.05;48.69;125687.94;4793565;29;20504;-84
2022/09/17 09:35:32;;;;;;;6.40;0.90;;;16.30;99.90;;;-144.05;48.18;125687.94;4793602;29;20066;-86
2022/09/17 09:38:31;;;;;;;3.03;0.98;;;16.30;99.90;;;-144.05;47.63;125687.94;4791240;29;20134;-84
2022/09/17 09:41:36;;;;;;;5.25;0.90;;;16.40;99.90;;;-144.05;48.13;125687.94;4790938;29;20035;-84
2022/09/17 09:44:12;;;;;;;6.22;1.10;;;16.60;99.90;;;-144.05;47.53;125687.94;4791052;30;20028;-88
2022/09/17 09:48:07;;;;;;;5.35;1.10;;;16.60;99.90;;;-144.05;46.74;125687.94;4792106;29;20031;-84
2022/09/17 09:50:58;;;;;;;4.82;1.08;;;16.70;99.90;;;-144.05;46.82;125687.94;4774235;30;20042;-85
2022/09/17 09:53:50;;;;;;;6.32;1.00;;;17.00;99.90;;;-144.05;46.68;125687.94;4774357;30;20039;-88
2022/09/17 09:57:04;;;;;;;4.10;1.08;;;16.70;99.90;;;-144.05;49.26;125687.94;4786983;30;20047;-85
2022/09/17 09:59:30;;;;;;;8.93;1.10;;;16.20;99.90;;;-144.05;48.34;125687.94;4790675;30;20393;-86
2022/09/17 10:01:56;;;;;;;5.82;0.70;;;16.20;99.90;;;-144.05;48.20;125687.94;4790594;30;20131;-85
2022/09/17 10:04:26;;;;;;;4.70;1.10;;;16.00;99.90;;;-144.05;47.72;125687.94;4790902;29;20035;-85
2022/09/17 10:07:02;;;;;;;6.15;1.02;;;15.60;99.90;;;-144.05;48.56;125687.94;4791550;29;20051;-88
2022/09/17 10:09:31;;;;;;;8.45;1.20;;;15.50;99.90;;;-144.05;49.32;125687.94;4791520;29;20106;-87
2022/09/17 10:12:03;;;;;;;7.20;1.27;;;15.40;99.90;;;-144.05;48.33;125687.94;4791180;29;20031;-88
2022/09/17 10:14:39;;;;;;;2.03;0.55;;;15.70;99.90;;;-144.05;46.40;125687.94;4790446;30;20042;-85
2022/09/17 10:17:28;;;;;;;;;;;16.10;99.90;;;-144.05;47.08;125687.94;4790670;29;20031;-89
2022/09/17 10:20:09;;;;;;;2.30;0.73;;;16.10;99.90;;;-144.05;46.83;125687.94;4792203;29;19913;-86
2022/09/17 10:22:47;;;;;;;4.38;0.98;;;16.00;99.90;;;-144.05;46.86;125687.94;4807010;24;20077;-82
2022/09/17 10:25:34;;;;;;;6.97;0.80;;;15.70;99.90;;;-144.05;47.02;125687.94;4793499;29;20031;-83
2022/09/17 10:28:27;;;;;;;4.82;0.70;;;15.80;99.90;;;-144.05;45.20;125687.94;4790897;29;20402;-79
2022/09/17 10:31:02;;;;;;;4.53;0.73;;;16.20;99.90;;;-144.05;45.54;125687.94;4791126;29;20031;-79